createdAt,value
2022-10-09T00:00:08.488Z,18.55
2022-10-09T00:02:10.087Z,17.80
2022-10-09T00:04:11.664Z,17.55
2022-10-09T00:06:16.920Z,17.84
2022-10-09T00:08:18.435Z,16.70
2022-10-09T00:10:20.524Z,17.39
2022-10-09T00:12:22.144Z,17.94
2022-10-09T00:14:23.701Z,18.11
2022-10-09T00:16:26.193Z,18.04
2022-10-09T00:18:27.731Z,17.64
2022-10-09T00:20:29.842Z,17.47
2022-10-09T00:22:31.454Z,17.14
2022-10-09T00:24:33.056Z,17.59
2022-10-09T00:26:34.744Z,17.83
2022-10-09T00:28:38.610Z,17.20
2022-10-09T00:30:40.688Z,17.33
2022-10-09T00:32:42.227Z,18.01
2022-10-09T00:34:43.995Z,17.64
2022-10-09T00:36:45.497Z,17.59
2022-10-09T00:38:47.534Z,17.00
2022-10-09T00:40:49.111Z,17.42
2022-10-09T00:42:57.257Z,17.61
2022-10-09T00:45:00.825Z,17.75
2022-10-09T00:47:03.316Z,17.35
2022-10-09T00:49:24.655Z,17.79
2022-10-09T00:51:27.564Z,17.56
2022-10-09T00:53:30.803Z,17.02
2022-10-09T00:55:35.228Z,17.48
2022-10-09T00:57:38.977Z,16.92
2022-10-09T00:59:41.073Z,17.19
2022-10-09T01:01:42.817Z,17.36
2022-10-09T01:03:44.457Z,17.31
2022-10-09T01:06:20.162Z,17.40
2022-10-09T01:08:44.744Z,16.60
2022-10-09T01:11:10.614Z,16.59
2022-10-09T01:13:39.412Z,16.61
2022-10-09T01:15:46.978Z,16.80
2022-10-09T01:17:56.763Z,17.16
2022-10-09T01:20:28.699Z,16.66
2022-10-09T01:22:48.155Z,16.97
2022-10-09T01:25:00.271Z,16.91
2022-10-09T01:27:23.532Z,16.59
2022-10-09T01:29:31.594Z,16.71
2022-10-09T01:31:39.046Z,16.22
2022-10-09T01:33:41.203Z,16.53
2022-10-09T01:35:44.902Z,15.93
2022-10-09T01:37:47.667Z,16.30
2022-10-09T01:39:51.557Z,16.21
2022-10-09T01:41:54.799Z,16.28
2022-10-09T01:43:56.583Z,16.50
2022-10-09T01:46:18.555Z,17.22
2022-10-09T01:48:25.108Z,16.14
2022-10-09T01:50:33.180Z,15.50
2022-10-09T01:52:41.142Z,16.38
2022-10-09T01:54:48.998Z,16.63
2022-10-09T01:56:52.803Z,16.25
2022-10-09T01:59:01.025Z,16.30
2022-10-09T02:01:06.119Z,16.13
2022-10-09T02:03:11.679Z,16.40
2022-10-09T02:05:19.298Z,15.58
2022-10-09T02:07:23.292Z,16.85
2022-10-09T02:09:25.585Z,16.25
2022-10-09T02:11:30.932Z,16.77
2022-10-09T02:13:34.464Z,16.37
2022-10-09T02:15:51.425Z,16.30
2022-10-09T02:17:57.912Z,16.30
2022-10-09T02:20:09.596Z,16.36
2022-10-09T02:22:17.466Z,16.99
2022-10-09T02:24:21.496Z,16.49
2022-10-09T02:26:23.379Z,16.35
2022-10-09T02:28:25.064Z,16.38
2022-10-09T02:30:35.848Z,16.70
2022-10-09T02:32:37.433Z,17.20
2022-10-09T02:34:39.487Z,16.48
2022-10-09T02:36:41.274Z,16.14
2022-10-09T02:38:42.821Z,16.35
2022-10-09T02:40:44.328Z,16.14
2022-10-09T02:42:46.065Z,16.16
2022-10-09T02:44:47.816Z,15.67
2022-10-09T02:46:49.440Z,16.50
2022-10-09T02:48:51.287Z,16.42
2022-10-09T02:50:52.890Z,16.59
2022-10-09T02:52:54.402Z,16.29
2022-10-09T02:54:55.943Z,16.33
2022-10-09T02:56:57.463Z,16.63
2022-10-09T02:58:59.043Z,15.91
2022-10-09T03:01:00.853Z,16.42
2022-10-09T03:03:02.412Z,16.36
2022-10-09T03:05:04.234Z,16.00
2022-10-09T03:07:05.795Z,16.15
2022-10-09T03:09:07.336Z,15.45
2022-10-09T03:11:09.170Z,15.68
2022-10-09T03:13:10.764Z,16.11
2022-10-09T03:15:12.922Z,15.45
2022-10-09T03:17:14.544Z,16.02
2022-10-09T03:19:16.193Z,15.78
2022-10-09T03:21:21.024Z,15.95
2022-10-09T03:23:22.553Z,15.36
2022-10-09T03:25:25.123Z,15.67
2022-10-09T03:27:26.700Z,15.41
2022-10-09T03:29:28.240Z,15.13
2022-10-09T03:33:51.416Z,15.58
2022-10-09T03:35:52.992Z,15.46
2022-10-09T03:37:54.541Z,15.36
2022-10-09T03:39:56.155Z,15.58
2022-10-09T03:41:57.954Z,15.15
2022-10-09T03:43:59.529Z,15.34
2022-10-09T03:46:04.722Z,15.23
2022-10-09T03:48:06.790Z,15.48
2022-10-09T03:50:08.829Z,15.72
2022-10-09T03:52:10.471Z,15.17
2022-10-09T03:54:12.076Z,14.95
2022-10-09T03:56:13.786Z,15.61
2022-10-09T03:58:15.339Z,15.01
2022-10-09T04:00:17.201Z,15.54
2022-10-09T04:02:18.827Z,14.94
2022-10-09T04:04:20.350Z,14.75
2022-10-09T04:06:21.913Z,15.06
2022-10-09T04:08:23.521Z,15.12
2022-10-09T04:10:25.388Z,14.85
2022-10-09T04:12:26.957Z,14.99
2022-10-09T04:14:28.463Z,15.40
2022-10-09T04:16:30.122Z,15.45
2022-10-09T04:18:31.689Z,15.15
2022-10-09T04:20:33.358Z,15.30
2022-10-09T04:22:34.896Z,15.44
2022-10-09T04:24:36.462Z,15.06
2022-10-09T04:26:38.127Z,15.47
2022-10-09T04:28:40.291Z,15.84
2022-10-09T04:30:41.932Z,15.49
2022-10-09T04:32:43.535Z,15.22
2022-10-09T04:34:45.045Z,15.36
2022-10-09T04:36:46.704Z,15.53
2022-10-09T04:38:48.243Z,15.09
2022-10-09T04:41:01.414Z,15.51
2022-10-09T04:43:03.135Z,15.31
2022-10-09T04:45:05.311Z,15.39
2022-10-09T04:47:11.182Z,15.11
2022-10-09T04:49:13.923Z,15.67
2022-10-09T04:51:16.850Z,14.99
2022-10-09T04:53:18.388Z,14.67
2022-10-09T04:55:20.029Z,14.87
2022-10-09T04:57:21.707Z,15.57
2022-10-09T04:59:23.383Z,15.40
2022-10-09T05:01:27.633Z,14.80
2022-10-09T05:03:29.334Z,14.99
2022-10-09T05:05:32.420Z,15.30
2022-10-09T05:07:33.975Z,14.81
2022-10-09T05:09:35.583Z,15.09
2022-10-09T05:11:42.301Z,14.54
2022-10-09T05:13:47.106Z,15.72
2022-10-09T05:15:48.676Z,14.60
2022-10-09T05:17:50.192Z,14.79
2022-10-09T05:19:51.765Z,14.91
2022-10-09T05:21:53.380Z,14.47
2022-10-09T05:23:55.895Z,14.20
2022-10-09T05:25:59.265Z,14.30
2022-10-09T05:28:00.824Z,15.02
2022-10-09T05:30:02.421Z,14.41
2022-10-09T05:32:04.219Z,15.45
2022-10-09T05:34:05.843Z,14.37
2022-10-09T05:36:07.723Z,14.26
2022-10-09T05:38:09.248Z,14.89
2022-10-09T05:40:11.257Z,14.86
2022-10-09T05:42:12.770Z,14.65
2022-10-09T05:44:14.296Z,14.14
2022-10-09T05:46:15.908Z,14.20
2022-10-09T05:48:18.078Z,14.92
2022-10-09T05:50:19.619Z,14.00
2022-10-09T05:52:21.188Z,14.50
2022-10-09T05:54:22.753Z,14.38
2022-10-09T05:56:25.708Z,14.33
2022-10-09T05:58:27.286Z,15.54
2022-10-09T06:00:28.921Z,14.74
2022-10-09T06:02:30.561Z,14.75
2022-10-09T06:04:32.202Z,15.15
2022-10-09T06:06:37.112Z,14.69
2022-10-09T06:08:39.091Z,14.96
2022-10-09T06:10:40.727Z,15.33
2022-10-09T06:12:42.315Z,14.49
2022-10-09T06:14:43.883Z,14.84
2022-10-09T06:16:46.239Z,14.99
2022-10-09T06:18:49.227Z,15.05
2022-10-09T06:20:56.066Z,14.04
2022-10-09T06:22:57.572Z,14.76
2022-10-09T06:24:59.210Z,14.18
2022-10-09T06:27:00.828Z,14.99
2022-10-09T06:29:03.058Z,14.71
2022-10-09T06:31:10.646Z,14.48
2022-10-09T06:33:12.525Z,14.93
2022-10-09T06:35:14.187Z,15.84
2022-10-09T06:37:15.739Z,14.65
2022-10-09T06:39:17.250Z,15.49
2022-10-09T06:41:23.895Z,15.19
2022-10-09T06:43:25.464Z,15.56
2022-10-09T06:45:26.999Z,15.28
2022-10-09T06:47:28.526Z,14.85
2022-10-09T06:49:30.139Z,14.64
2022-10-09T06:51:32.513Z,14.50
2022-10-09T06:53:35.949Z,15.02
2022-10-09T06:55:38.377Z,14.60
2022-10-09T06:57:39.908Z,15.22
2022-10-09T06:59:41.441Z,15.04
2022-10-09T07:01:43.123Z,15.17
2022-10-09T07:03:48.447Z,14.67
2022-10-09T07:05:49.971Z,14.34
2022-10-09T07:07:51.529Z,15.17
2022-10-09T07:09:53.568Z,15.19
2022-10-09T07:11:55.151Z,14.86
2022-10-09T07:14:01.436Z,15.06
2022-10-09T07:16:04.942Z,15.10
2022-10-09T07:18:06.681Z,15.25
2022-10-09T07:20:08.435Z,15.86
2022-10-09T07:22:11.527Z,16.11
2022-10-09T07:24:13.779Z,15.61
2022-10-09T07:26:18.579Z,16.13
2022-10-09T07:28:20.211Z,15.66
2022-10-09T07:30:21.775Z,15.77
2022-10-09T07:32:23.323Z,15.83
2022-10-09T07:34:25.030Z,15.62
2022-10-09T07:36:27.131Z,16.42
2022-10-09T07:38:29.680Z,16.23
2022-10-09T07:40:36.820Z,16.34
2022-10-09T07:42:38.331Z,15.63
2022-10-09T07:44:39.856Z,16.33
2022-10-09T07:46:41.603Z,16.57
2022-10-09T07:48:44.030Z,16.36
2022-10-09T07:50:45.602Z,16.79
2022-10-09T07:52:47.684Z,16.34
2022-10-09T07:54:49.405Z,16.21
2022-10-09T07:56:50.983Z,15.71
2022-10-09T07:58:54.591Z,15.94
2022-10-09T08:00:56.176Z,17.02
2022-10-09T08:02:57.757Z,16.99
2022-10-09T08:04:59.375Z,16.05
2022-10-09T08:07:00.941Z,16.47
2022-10-09T08:09:05.246Z,16.35
2022-10-09T08:11:14.799Z,17.28
2022-10-09T08:13:16.343Z,16.94
2022-10-09T08:15:17.973Z,17.48
2022-10-09T08:17:19.553Z,16.80
2022-10-09T08:19:21.263Z,16.92
2022-10-09T08:21:22.928Z,16.60
2022-10-09T08:23:24.511Z,17.32
2022-10-09T08:25:26.063Z,16.79
2022-10-09T08:27:27.726Z,16.43
2022-10-09T08:31:31.959Z,17.24
2022-10-09T08:33:34.451Z,17.15
2022-10-09T08:35:36.007Z,17.10
2022-10-09T08:37:37.716Z,17.37
2022-10-09T08:39:39.272Z,17.43
2022-10-09T08:41:48.290Z,17.70
2022-10-09T08:43:56.435Z,16.87
2022-10-09T08:46:01.934Z,17.42
2022-10-09T08:48:12.350Z,17.90
2022-10-09T08:50:23.917Z,16.77
2022-10-09T08:52:35.000Z,17.60
2022-10-09T08:54:39.270Z,18.65
2022-10-09T08:56:41.017Z,18.14
2022-10-09T08:58:44.388Z,18.16
2022-10-09T09:00:58.378Z,17.88
2022-10-09T09:03:14.926Z,17.56
2022-10-09T09:05:19.282Z,17.93
2022-10-09T09:07:39.316Z,17.70
2022-10-09T09:09:43.772Z,17.93
2022-10-09T09:11:51.601Z,18.37
2022-10-09T09:14:21.251Z,18.87
2022-10-09T09:16:38.867Z,18.39
2022-10-09T09:18:46.498Z,18.13
2022-10-09T09:20:53.462Z,18.59
2022-10-09T09:22:57.832Z,18.25
2022-10-09T09:25:00.640Z,18.16
2022-10-09T09:27:10.620Z,17.82
2022-10-09T09:29:15.495Z,18.51
2022-10-09T09:31:28.161Z,18.51
2022-10-09T09:33:37.388Z,18.89
2022-10-09T09:36:09.437Z,18.90
2022-10-09T09:38:11.035Z,18.81
2022-10-09T09:40:36.076Z,18.54
2022-10-09T09:42:38.133Z,18.55
2022-10-09T09:44:47.879Z,18.70
2022-10-09T09:46:49.573Z,18.90
2022-10-09T09:48:51.215Z,18.90
2022-10-09T09:51:10.064Z,19.12
2022-10-09T09:53:15.564Z,19.43
2022-10-09T09:55:27.595Z,19.45
2022-10-09T09:57:39.697Z,19.79
2022-10-09T09:59:43.969Z,19.24
2022-10-09T10:01:45.605Z,19.21
2022-10-09T10:03:53.565Z,19.03
2022-10-09T10:05:55.205Z,19.73
2022-10-09T10:07:57.683Z,19.16
2022-10-09T10:10:09.632Z,19.66
2022-10-09T10:12:18.424Z,19.43
2022-10-09T10:14:20.066Z,19.87
2022-10-09T10:16:25.274Z,19.58
2022-10-09T10:18:32.261Z,19.88
2022-10-09T10:21:08.760Z,19.95
2022-10-09T10:23:46.251Z,19.62
2022-10-09T10:25:47.960Z,19.89
2022-10-09T10:27:55.312Z,20.77
2022-10-09T10:30:01.594Z,20.30
2022-10-09T10:32:21.103Z,20.35
2022-10-09T10:34:48.435Z,19.45
2022-10-09T10:37:00.990Z,19.54
2022-10-09T10:39:12.608Z,20.34
2022-10-09T10:41:21.246Z,20.72
2022-10-09T10:43:33.059Z,21.21
2022-10-09T10:45:44.729Z,21.11
2022-10-09T10:47:54.331Z,19.98
2022-10-09T10:49:55.905Z,20.12
2022-10-09T10:52:16.281Z,20.82
2022-10-09T10:54:44.966Z,20.60
2022-10-09T10:57:31.199Z,20.87
2022-10-09T11:00:06.338Z,20.71
2022-10-09T11:03:37.303Z,18.44
2022-10-09T11:05:46.967Z,18.76
2022-10-09T11:07:51.419Z,19.32
2022-10-09T11:10:32.200Z,19.29
2022-10-09T11:12:49.786Z,19.73
2022-10-09T11:14:51.293Z,19.96
2022-10-09T11:17:09.627Z,19.93
2022-10-09T11:19:20.183Z,20.29
2022-10-09T11:21:33.907Z,19.59
2022-10-09T11:23:57.153Z,19.67
2022-10-09T11:26:32.153Z,20.87
2022-10-09T11:28:43.372Z,19.78
2022-10-09T11:30:57.373Z,19.85
2022-10-09T11:33:17.260Z,19.83
2022-10-09T11:35:21.989Z,19.93
2022-10-09T11:37:28.435Z,19.99
2022-10-09T11:39:32.623Z,20.71
2022-10-09T11:41:35.979Z,21.13
2022-10-09T11:43:52.580Z,20.49
2022-10-09T11:46:13.749Z,19.90
2022-10-09T11:48:21.091Z,20.95
2022-10-09T11:51:01.154Z,20.32
2022-10-09T11:53:09.461Z,20.56
2022-10-09T11:55:23.386Z,20.27
2022-10-09T11:57:29.579Z,20.23
2022-10-09T11:59:35.257Z,20.32
2022-10-09T12:01:39.822Z,20.16
2022-10-09T12:03:41.771Z,20.01
2022-10-09T12:05:46.297Z,20.17
2022-10-09T12:07:48.030Z,20.14
2022-10-09T12:09:49.697Z,20.10
2022-10-09T12:12:07.392Z,20.91
2022-10-09T12:14:11.894Z,21.14
2022-10-09T12:16:39.393Z,20.69
2022-10-09T12:18:46.067Z,20.99
2022-10-09T12:20:49.384Z,21.03
2022-10-09T12:23:21.863Z,20.22
2022-10-09T12:25:44.785Z,21.08
2022-10-09T12:27:47.753Z,20.81
2022-10-09T12:29:56.832Z,20.55
2022-10-09T12:32:05.312Z,20.44
2022-10-09T12:34:12.715Z,20.53
2022-10-09T12:36:16.641Z,20.57
2022-10-09T12:38:25.000Z,20.51
2022-10-09T12:40:33.269Z,21.49
2022-10-09T12:42:35.078Z,20.69
2022-10-09T12:44:42.355Z,21.16
2022-10-09T12:46:43.896Z,20.92
2022-10-09T12:48:46.324Z,20.66
2022-10-09T12:50:48.441Z,21.06
2022-10-09T12:53:00.027Z,21.27
2022-10-09T12:55:02.455Z,21.27
2022-10-09T12:57:04.130Z,21.57
2022-10-09T12:59:11.702Z,21.12
2022-10-09T13:01:15.169Z,21.55
2022-10-09T13:03:45.944Z,21.72
2022-10-09T13:05:47.499Z,21.31
2022-10-09T13:07:54.192Z,21.71
2022-10-09T13:10:02.393Z,21.28
2022-10-09T13:12:25.724Z,21.94
2022-10-09T13:14:41.023Z,21.75
2022-10-09T13:16:47.623Z,21.89
2022-10-09T13:18:57.399Z,21.60
2022-10-09T13:21:24.918Z,22.01
2022-10-09T13:23:30.212Z,22.27
2022-10-09T13:25:40.549Z,21.59
2022-10-09T13:27:42.146Z,22.01
2022-10-09T13:29:43.962Z,22.07
2022-10-09T13:31:45.617Z,22.03
2022-10-09T13:33:47.639Z,22.70
2022-10-09T13:35:49.191Z,22.02
2022-10-09T13:37:51.004Z,21.93
2022-10-09T13:39:54.174Z,21.77
2022-10-09T13:41:58.516Z,22.11
2022-10-09T13:44:00.121Z,22.43
2022-10-09T13:46:01.782Z,22.51
2022-10-09T13:48:03.444Z,22.32
2022-10-09T13:50:05.375Z,22.17
2022-10-09T13:52:07.337Z,22.38
2022-10-09T13:54:08.930Z,21.95
2022-10-09T13:56:10.529Z,22.25
2022-10-09T13:58:12.114Z,21.69
2022-10-09T14:00:14.019Z,21.99
2022-10-09T14:02:15.556Z,21.78
2022-10-09T14:04:17.279Z,22.57
2022-10-09T14:06:18.918Z,22.30
2022-10-09T14:08:20.454Z,22.38
2022-10-09T14:10:23.857Z,22.32
2022-10-09T14:12:25.738Z,22.33
2022-10-09T14:14:27.280Z,22.48
2022-10-09T14:16:30.248Z,22.52
2022-10-09T14:18:31.926Z,22.49
2022-10-09T14:20:34.061Z,22.28
2022-10-09T14:22:35.578Z,22.45
2022-10-09T14:24:37.406Z,22.06
2022-10-09T14:26:38.968Z,22.24
2022-10-09T14:28:40.758Z,22.50
2022-10-09T14:30:43.536Z,22.17
2022-10-09T14:32:45.101Z,22.20
2022-10-09T14:34:46.804Z,22.00
2022-10-09T14:36:48.957Z,21.53
2022-10-09T14:38:50.513Z,22.40
2022-10-09T14:40:52.046Z,22.16
2022-10-09T14:42:53.721Z,22.43
2022-10-09T14:44:55.254Z,21.73
2022-10-09T14:46:56.757Z,22.45
2022-10-09T14:48:59.097Z,21.81
2022-10-09T14:51:10.581Z,21.85
2022-10-09T14:53:12.134Z,22.34
2022-10-09T14:55:13.715Z,22.64
2022-10-09T14:57:15.322Z,22.20
2022-10-09T14:59:16.841Z,21.71
2022-10-09T15:01:20.468Z,21.99
2022-10-09T15:03:22.113Z,21.81
2022-10-09T15:05:23.665Z,21.98
2022-10-09T15:07:28.061Z,21.82
2022-10-09T15:09:29.612Z,22.59
2022-10-09T15:11:31.575Z,22.66
2022-10-09T15:13:37.055Z,22.71
2022-10-09T15:15:38.628Z,22.83
2022-10-09T15:17:40.566Z,22.47
2022-10-09T15:19:42.103Z,22.51
2022-10-09T15:21:43.634Z,22.62
2022-10-09T15:23:46.577Z,22.01
2022-10-09T15:25:49.833Z,22.37
2022-10-09T15:27:54.554Z,21.92
2022-10-09T15:29:56.535Z,22.15
2022-10-09T15:31:58.149Z,21.75
2022-10-09T15:34:01.593Z,22.14
2022-10-09T15:36:04.015Z,22.50
2022-10-09T15:38:06.633Z,22.25
2022-10-09T15:40:09.169Z,22.76
2022-10-09T15:42:10.724Z,22.43
2022-10-09T15:44:18.333Z,22.29
2022-10-09T15:46:19.956Z,22.67
2022-10-09T15:48:24.376Z,22.89
2022-10-09T15:50:25.998Z,22.76
2022-10-09T15:52:27.559Z,22.71
2022-10-09T15:54:29.172Z,22.10
2022-10-09T15:56:31.753Z,22.56
2022-10-09T15:58:34.666Z,22.15
2022-10-09T16:00:38.262Z,22.51
2022-10-09T16:02:39.879Z,22.40
2022-10-09T16:04:41.453Z,21.90
2022-10-09T16:06:43.150Z,21.39
2022-10-09T16:08:46.229Z,22.08
2022-10-09T16:10:49.500Z,21.89
2022-10-09T16:12:51.423Z,21.95
2022-10-09T16:14:53.546Z,22.12
2022-10-09T16:16:55.861Z,22.25
2022-10-09T16:18:57.422Z,21.89
2022-10-09T16:21:11.607Z,21.95
2022-10-09T16:23:14.106Z,22.07
2022-10-09T16:25:15.774Z,21.72
2022-10-09T16:27:17.352Z,22.06
2022-10-09T16:29:18.960Z,21.97
2022-10-09T16:31:23.684Z,22.24
2022-10-09T16:33:25.668Z,21.50
2022-10-09T16:35:28.588Z,21.98
2022-10-09T16:37:30.113Z,21.79
2022-10-09T16:39:31.724Z,22.07
2022-10-09T16:41:33.256Z,21.40
2022-10-09T16:43:35.387Z,20.90
2022-10-09T16:45:36.936Z,21.56
2022-10-09T16:47:40.401Z,21.51
2022-10-09T16:49:42.103Z,22.27
2022-10-09T16:51:44.867Z,21.87
2022-10-09T16:53:49.515Z,21.59
2022-10-09T16:56:05.820Z,21.36
2022-10-09T16:58:07.430Z,21.82
2022-10-09T17:00:09.666Z,21.82
2022-10-09T17:02:12.566Z,21.53
2022-10-09T17:04:14.825Z,21.50
2022-10-09T17:06:23.521Z,21.32
2022-10-09T17:08:25.203Z,21.89
2022-10-09T17:10:26.736Z,21.01
2022-10-09T17:12:28.348Z,21.48
2022-10-09T17:14:30.117Z,21.70
2022-10-09T17:16:35.051Z,21.41
2022-10-09T17:18:37.274Z,21.15
2022-10-09T17:20:39.296Z,21.16
2022-10-09T17:22:40.851Z,21.88
2022-10-09T17:24:42.400Z,21.77
2022-10-09T17:26:44.092Z,22.19
2022-10-09T17:28:47.568Z,21.99
2022-10-09T17:30:49.181Z,21.59
2022-10-09T17:32:51.682Z,21.12
2022-10-09T17:34:53.681Z,21.87
2022-10-09T17:36:55.201Z,22.07
2022-10-09T17:38:57.218Z,21.85
2022-10-09T17:40:58.828Z,21.80
2022-10-09T17:43:00.335Z,21.75
2022-10-09T17:45:02.548Z,21.36
2022-10-09T17:47:05.388Z,20.85
2022-10-09T17:49:07.104Z,21.15
2022-10-09T17:51:08.620Z,21.27
2022-10-09T17:53:10.430Z,21.36
2022-10-09T17:55:11.943Z,21.66
2022-10-09T17:57:13.479Z,21.18
2022-10-09T17:59:15.844Z,21.18
2022-10-09T18:01:18.125Z,21.62
2022-10-09T18:03:20.407Z,21.75
2022-10-09T18:05:21.997Z,21.62
2022-10-09T18:07:24.117Z,21.50
2022-10-09T18:09:25.687Z,21.43
2022-10-09T18:11:27.776Z,20.92
2022-10-09T18:13:29.560Z,21.03
2022-10-09T18:15:31.108Z,21.72
2022-10-09T18:17:34.471Z,21.89
2022-10-09T18:19:36.024Z,21.42
2022-10-09T18:21:40.200Z,21.12
2022-10-09T18:25:50.167Z,19.87
2022-10-09T18:27:51.953Z,19.63
2022-10-09T18:29:53.643Z,20.59
2022-10-09T18:31:55.888Z,20.64
2022-10-09T18:33:59.139Z,20.20
2022-10-09T18:36:19.410Z,20.58
2022-10-09T18:38:21.039Z,20.71
2022-10-09T18:40:22.682Z,20.12
2022-10-09T18:42:24.209Z,20.11
2022-10-09T18:44:25.936Z,20.13
2022-10-09T18:46:32.037Z,20.47
2022-10-09T18:48:36.811Z,20.94
2022-10-09T18:50:38.465Z,20.40
2022-10-09T18:52:41.516Z,19.80
2022-10-09T18:54:44.452Z,19.86
2022-10-09T18:56:46.707Z,19.34
2022-10-09T18:58:51.618Z,20.14
2022-10-09T19:00:53.253Z,20.23
2022-10-09T19:02:54.928Z,20.25
2022-10-09T19:04:57.619Z,19.97
2022-10-09T19:06:59.219Z,20.00
2022-10-09T19:09:01.376Z,19.66
2022-10-09T19:11:02.956Z,20.19
2022-10-09T19:13:04.643Z,20.86
2022-10-09T19:15:11.744Z,20.72
2022-10-09T19:17:14.286Z,20.22
2022-10-09T19:19:15.860Z,20.69
2022-10-09T19:21:17.462Z,21.01
2022-10-09T19:23:19.332Z,20.80
2022-10-09T19:25:20.962Z,20.64
2022-10-09T19:27:26.311Z,20.79
2022-10-09T19:29:28.819Z,20.42
2022-10-09T19:31:31.343Z,20.90
2022-10-09T19:33:33.097Z,20.94
2022-10-09T19:35:34.621Z,20.61
2022-10-09T19:37:36.147Z,20.88
2022-10-09T19:39:37.749Z,20.66
2022-10-09T19:41:41.778Z,20.63
2022-10-09T19:43:43.360Z,20.81
2022-10-09T19:45:48.860Z,20.11
2022-10-09T19:47:54.172Z,20.67
2022-10-09T19:49:56.094Z,20.10
2022-10-09T19:51:57.708Z,20.19
2022-10-09T19:54:01.839Z,19.75
2022-10-09T19:56:10.333Z,19.67
2022-10-09T19:58:12.030Z,19.22
2022-10-09T20:00:13.895Z,18.97
2022-10-09T20:02:15.439Z,19.14
2022-10-09T20:04:17.149Z,19.36
2022-10-09T20:06:18.906Z,19.10
2022-10-09T20:08:20.479Z,19.52
2022-10-09T20:10:22.059Z,19.02
2022-10-09T20:12:24.203Z,19.26
2022-10-09T20:14:25.782Z,18.90
2022-10-09T20:16:29.888Z,18.56
2022-10-09T20:18:31.723Z,18.49
2022-10-09T20:20:35.539Z,19.18
2022-10-09T20:22:37.102Z,18.34
2022-10-09T20:24:38.697Z,18.09
2022-10-09T20:26:43.124Z,18.20
2022-10-09T20:28:46.556Z,19.03
2022-10-09T20:30:56.502Z,18.82
2022-10-09T20:32:59.434Z,18.20
2022-10-09T20:35:02.532Z,18.45
2022-10-09T20:37:04.369Z,17.74
2022-10-09T20:39:08.839Z,17.83
2022-10-09T20:41:10.420Z,18.63
2022-10-09T20:43:13.327Z,18.05
2022-10-09T20:45:14.940Z,18.24
2022-10-09T20:47:16.491Z,17.76
2022-10-09T20:49:18.232Z,18.37
2022-10-09T20:51:21.350Z,18.16
2022-10-09T20:53:22.901Z,17.87
2022-10-09T20:55:24.740Z,18.03
2022-10-09T20:57:26.423Z,17.60
2022-10-09T20:59:27.979Z,17.63
2022-10-09T21:01:29.670Z,17.36
2022-10-09T21:03:31.509Z,16.83
2022-10-09T21:05:33.040Z,16.61
2022-10-09T21:07:34.675Z,17.05
2022-10-09T21:09:37.038Z,17.28
2022-10-09T21:11:40.341Z,17.27
2022-10-09T21:13:42.116Z,17.02
2022-10-09T21:15:45.751Z,17.39
2022-10-09T21:17:47.314Z,17.94
2022-10-09T21:19:50.553Z,17.96
2022-10-09T21:21:52.135Z,17.97
2022-10-09T21:23:57.778Z,17.21
2022-10-09T21:25:59.731Z,17.21
2022-10-09T21:28:01.660Z,17.37
2022-10-09T21:30:03.875Z,17.25
2022-10-09T21:32:06.040Z,17.57
2022-10-09T21:34:07.622Z,17.17
2022-10-09T21:36:12.063Z,16.63
2022-10-09T21:38:17.058Z,17.33
2022-10-09T21:40:18.629Z,16.77
2022-10-09T21:42:20.158Z,16.86
2022-10-09T21:44:21.851Z,17.32
2022-10-09T21:46:23.795Z,17.44
2022-10-09T21:48:25.392Z,16.93
2022-10-09T21:50:27.087Z,16.81
2022-10-09T21:52:28.589Z,17.08
2022-10-09T21:54:30.140Z,16.96
2022-10-09T21:56:31.719Z,16.65
2022-10-09T21:58:33.364Z,16.88
2022-10-09T22:00:35.829Z,17.48
2022-10-09T22:02:37.356Z,17.55
2022-10-09T22:04:38.915Z,16.90
2022-10-09T22:06:41.206Z,17.67
2022-10-09T22:08:43.260Z,17.71
2022-10-09T22:10:44.945Z,16.96
2022-10-09T22:12:46.501Z,17.09
2022-10-09T22:14:48.135Z,17.59
2022-10-09T22:16:49.727Z,18.15
2022-10-09T22:18:51.389Z,18.15
2022-10-09T22:20:52.944Z,17.84
2022-10-09T22:22:54.469Z,16.95
2022-10-09T22:24:56.158Z,17.34
2022-10-09T22:26:57.823Z,17.84
2022-10-09T22:28:59.378Z,18.08
2022-10-09T22:31:07.828Z,17.65
2022-10-09T22:33:09.368Z,17.28
2022-10-09T22:35:10.944Z,17.34
2022-10-09T22:37:12.500Z,17.24
2022-10-09T22:39:14.047Z,17.24
2022-10-09T22:41:20.832Z,16.40
2022-10-09T22:43:22.379Z,16.80
2022-10-09T22:45:23.931Z,17.03
2022-10-09T22:47:25.534Z,16.84
2022-10-09T22:49:27.590Z,17.22
2022-10-09T22:51:30.052Z,17.18
2022-10-09T22:53:31.950Z,16.81
2022-10-09T22:55:33.502Z,17.20
2022-10-09T22:57:35.123Z,17.94
2022-10-09T22:59:36.704Z,17.50
2022-10-09T23:01:45.035Z,17.43
2022-10-09T23:03:46.620Z,18.01
2022-10-09T23:05:48.224Z,18.19
2022-10-09T23:07:49.772Z,18.02
2022-10-09T23:09:51.300Z,17.77
2022-10-09T23:11:52.892Z,18.05
2022-10-09T23:13:56.394Z,18.58
2022-10-09T23:16:00.445Z,17.85
2022-10-09T23:18:04.128Z,17.79
2022-10-09T23:20:06.136Z,17.97
2022-10-09T23:22:07.685Z,18.00
2022-10-09T23:24:11.710Z,17.75
2022-10-09T23:26:16.911Z,18.04
2022-10-09T23:28:18.482Z,18.34
2022-10-09T23:30:20.082Z,17.98
2022-10-09T23:32:21.635Z,18.14
2022-10-09T23:34:23.159Z,17.80
2022-10-09T23:36:27.575Z,17.90
2022-10-09T23:38:29.116Z,17.37
2022-10-09T23:40:30.656Z,17.09
2022-10-09T23:42:32.251Z,16.88
2022-10-09T23:44:33.785Z,17.33
2022-10-09T23:46:37.548Z,16.54
2022-10-09T23:48:39.209Z,17.23
2022-10-09T23:50:40.754Z,16.50
2022-10-09T23:52:42.400Z,16.27
2022-10-09T23:54:43.957Z,16.68
2022-10-09T23:56:45.625Z,17.56
2022-10-09T23:58:47.794Z,17.07
